Time;durP1;ratioP1;P1;durP2;ratioP2;P2;SDS_P1;SDS_P2;PMS_P1;PMS_P2;Temp;Humidity;BMP_temperature;BMP_pressure;BME280_temperature;BME280_humidity;BME280_pressure;Samples;Min_cycle;Max_cycle;Signal;HPM_P1;HPM_P2
2024/01/04 00:00:59;;;;;;;0.40;0.20;;;;;;;;;;5059502;28;20046;-88
2024/01/04 00:03:27;;;;;;;2.38;0.30;;;;;;;;;;5059794;28;20099;-89
2024/01/04 00:05:54;;;;;;;0.20;0.15;;;;;;;;;;5046366;28;20045;-89
2024/01/04 00:08:21;;;;;;;1.77;0.28;;;;;;;;;;5046022;28;20045;-89
2024/01/04 00:10:49;;;;;;;0.40;0.10;;;;;;;;;;5034440;28;20150;-90
2024/01/04 00:13:16;;;;;;;0.73;0.30;;;;;;;;;;5059106;28;20064;-87
2024/01/04 00:15:43;;;;;;;2.00;0.32;;;;;;;;;;5061677;28;20053;-89
2024/01/04 00:18:10;;;;;;;1.00;0.20;;;;;;;;;;5045836;28;20467;-89
2024/01/04 00:20:37;;;;;;;0.43;0.20;;;;;;;;;;5043872;28;20547;-88
2024/01/04 00:23:05;;;;;;;0.20;0.10;;;;;;;;;;5058862;28;20060;-89
2024/01/04 00:25:32;;;;;;;0.95;0.20;;;;;;;;;;5059801;28;20053;-90
2024/01/04 00:28:00;;;;;;;0.38;0.38;;;;;;;;;;5045904;28;20428;-90
2024/01/04 00:30:27;;;;;;;1.95;0.57;;;;;;;;;;5045436;28;20049;-89
2024/01/04 00:32:54;;;;;;;0.95;0.40;;;;;;;;;;5058755;28;20054;-90
2024/01/04 00:35:22;;;;;;;1.38;0.28;;;;;;;;;;5034279;28;20056;-90
2024/01/04 00:37:49;;;;;;;0.30;0.20;;;;;;;;;;5029117;28;20049;-90
2024/01/04 00:40:16;;;;;;;0.50;0.13;;;;;;;;;;5045720;28;20061;-89
2024/01/04 00:42:44;;;;;;;0.68;0.30;;;;;;;;;;5045591;28;20044;-89
2024/01/04 00:45:11;;;;;;;0.40;0.30;;;;;;;;;;5030908;28;20057;-89
2024/01/04 00:47:39;;;;;;;1.27;0.40;;;;;;;;;;5060356;28;20073;-90
2024/01/04 00:50:06;;;;;;;1.45;0.20;;;;;;;;;;5045748;28;20128;-91
2024/01/04 00:52:34;;;;;;;1.65;0.60;;;;;;;;;;5043901;28;20057;-89
2024/01/04 00:55:01;;;;;;;1.05;0.22;;;;;;;;;;5058529;28;20072;-89
2024/01/04 00:57:28;;;;;;;1.08;0.20;;;;;;;;;;5058189;28;20053;-89
2024/01/04 00:59:55;;;;;;;0.40;0.20;;;;;;;;;;5036689;28;20050;-89
2024/01/04 01:02:22;;;;;;;0.50;0.28;;;;;;;;;;5022230;28;20111;-89
2024/01/04 01:04:50;;;;;;;1.02;0.30;;;;;;;;;;5033644;28;20105;-91
2024/01/04 01:07:17;;;;;;;0.82;0.20;;;;;;;;;;5052841;28;20050;-89
2024/01/04 01:09:44;;;;;;;0.82;0.20;;;;;;;;;;5069530;28;20060;-90
2024/01/04 01:12:12;;;;;;;2.33;0.15;;;;;;;;;;5045355;28;20061;-89
2024/01/04 01:14:39;;;;;;;0.15;0.15;;;;;;;;;;5042933;28;20056;-89
2024/01/04 01:17:06;;;;;;;0.65;0.00;;;;;;;;;;5058075;28;20049;-87
2024/01/04 01:19:33;;;;;;;0.28;0.28;;;;;;;;;;5058876;28;20053;-89
2024/01/04 01:22:01;;;;;;;0.15;0.15;;;;;;;;;;5045052;28;20546;-87
2024/01/04 01:24:28;;;;;;;0.22;0.10;;;;;;;;;;5044126;28;20057;-90
2024/01/04 01:26:55;;;;;;;1.55;0.17;;;;;;;;;;5041588;28;20081;-90
2024/01/04 01:29:22;;;;;;;0.40;0.10;;;;;;;;;;5058133;28;20095;-90
2024/01/04 01:31:49;;;;;;;2.00;0.00;;;;;;;;;;5049558;28;20080;-90
2024/01/04 01:34:17;;;;;;;0.15;0.10;;;;;;;;;;5056494;28;20098;-89
2024/01/04 01:36:45;;;;;;;2.15;0.15;;;;;;;;;;5036402;28;20057;-90
2024/01/04 01:39:12;;;;;;;0.20;0.20;;;;;;;;;;5044502;28;20041;-89
2024/01/04 01:41:40;;;;;;;1.13;0.17;;;;;;;;;;5042237;28;20053;-91
2024/01/04 01:44:07;;;;;;;1.33;0.40;;;;;;;;;;5057472;28;20054;-89
2024/01/04 01:46:34;;;;;;;1.75;0.43;;;;;;;;;;5058714;28;20099;-90
2024/01/04 01:49:02;;;;;;;0.10;0.10;;;;;;;;;;5044498;28;20069;-88
2024/01/04 01:51:30;;;;;;;1.35;0.40;;;;;;;;;;5036192;28;20085;-90
2024/01/04 01:53:57;;;;;;;0.75;0.10;;;;;;;;;;5044351;28;20049;-91
2024/01/04 01:56:24;;;;;;;0.52;0.10;;;;;;;;;;5044288;28;20049;-89
2024/01/04 01:58:52;;;;;;;0.13;0.13;;;;;;;;;;5056996;28;20107;-89
2024/01/04 02:01:19;;;;;;;1.17;0.10;;;;;;;;;;5049570;28;20069;-89
2024/01/04 02:03:47;;;;;;;0.08;0.08;;;;;;;;;;5043243;28;20052;-89
2024/01/04 02:06:14;;;;;;;0.57;0.20;;;;;;;;;;5044539;28;20053;-88
2024/01/04 02:08:44;;;;;;;0.98;0.10;;;;;;;;;;5041274;28;20048;-89
2024/01/04 02:11:11;;;;;;;0.77;0.10;;;;;;;;;;5057398;28;20061;-88
2024/01/04 02:13:38;;;;;;;0.30;0.17;;;;;;;;;;5058611;28;20057;-89
2024/01/04 02:16:06;;;;;;;0.40;0.10;;;;;;;;;;5032664;28;20301;-89
2024/01/04 02:18:33;;;;;;;0.17;0.13;;;;;;;;;;5031248;28;20240;-89
2024/01/04 02:21:01;;;;;;;0.82;0.25;;;;;;;;;;5044962;28;20131;-89
2024/01/04 02:23:28;;;;;;;0.52;0.13;;;;;;;;;;5046204;28;20034;-87
2024/01/04 02:25:55;;;;;;;0.22;0.10;;;;;;;;;;5050995;28;20049;-89
2024/01/04 02:28:22;;;;;;;3.20;0.15;;;;;;;;;;5044731;28;20054;-89
2024/01/04 02:30:50;;;;;;;0.20;0.10;;;;;;;;;;5049491;28;20111;-90
2024/01/04 02:33:17;;;;;;;0.47;0.47;;;;;;;;;;5057855;28;20052;-89
2024/01/04 02:35:45;;;;;;;0.30;0.10;;;;;;;;;;5043696;28;20131;-90
2024/01/04 02:38:12;;;;;;;0.20;0.10;;;;;;;;;;5044499;28;20052;-89
2024/01/04 02:40:39;;;;;;;1.27;0.32;;;;;;;;;;5042317;28;20098;-90
2024/01/04 02:43:09;;;;;;;0.08;0.05;;;;;;;;;;5057108;28;20053;-90
2024/01/04 02:45:37;;;;;;;0.75;0.28;;;;;;;;;;5058863;28;20084;-89
2024/01/04 02:48:04;;;;;;;0.20;0.20;;;;;;;;;;5044902;28;20055;-91
2024/01/04 02:50:32;;;;;;;0.40;0.10;;;;;;;;;;5043509;28;20055;-90
2024/01/04 02:52:59;;;;;;;0.55;0.10;;;;;;;;;;5048908;28;20056;-90
2024/01/04 02:55:26;;;;;;;2.05;0.20;;;;;;;;;;5041064;28;20494;-90
2024/01/04 02:57:54;;;;;;;1.33;0.10;;;;;;;;;;5044510;28;20065;-89
2024/01/04 03:00:22;;;;;;;0.22;0.08;;;;;;;;;;5044086;28;20045;-88
2024/01/04 03:02:49;;;;;;;0.38;0.13;;;;;;;;;;5044198;28;20045;-90
2024/01/04 03:05:18;;;;;;;0.10;0.10;;;;;;;;;;5044179;28;20063;-89
2024/01/04 03:07:45;;;;;;;0.75;0.10;;;;;;;;;;5041071;28;20049;-90
2024/01/04 03:10:12;;;;;;;0.85;0.10;;;;;;;;;;5058143;28;20486;-90
2024/01/04 03:12:40;;;;;;;0.38;0.08;;;;;;;;;;5059648;28;20054;-91
2024/01/04 03:15:07;;;;;;;0.28;0.00;;;;;;;;;;5044506;28;20115;-90
2024/01/04 03:17:35;;;;;;;0.20;0.05;;;;;;;;;;5041181;28;20156;-90
2024/01/04 03:20:04;;;;;;;0.10;0.03;;;;;;;;;;5030981;28;20064;-90
2024/01/04 03:22:34;;;;;;;0.32;0.08;;;;;;;;;;5047013;28;20508;-91
2024/01/04 03:25:01;;;;;;;0.65;0.00;;;;;;;;;;5047448;28;20049;-91
2024/01/04 03:27:28;;;;;;;0.13;0.10;;;;;;;;;;5046883;28;20052;-89
2024/01/04 03:29:56;;;;;;;0.10;0.10;;;;;;;;;;5056646;28;20045;-90
2024/01/04 03:32:23;;;;;;;0.68;0.20;;;;;;;;;;5047569;28;20053;-90
2024/01/04 03:34:50;;;;;;;2.20;0.00;;;;;;;;;;5052502;28;20045;-90
2024/01/04 03:37:18;;;;;;;0.10;0.10;;;;;;;;;;5067860;28;20071;-90
2024/01/04 03:39:45;;;;;;;0.10;0.00;;;;;;;;;;5070220;28;20057;-90
2024/01/04 03:42:13;;;;;;;0.20;0.00;;;;;;;;;;5046875;28;20044;-91
2024/01/04 03:44:42;;;;;;;0.55;0.00;;;;;;;;;;5044494;28;20045;-88
2024/01/04 03:47:09;;;;;;;3.00;0.13;;;;;;;;;;5059946;28;20049;-90
2024/01/04 03:49:36;;;;;;;0.10;0.10;;;;;;;;;;5061293;28;20045;-90
2024/01/04 03:52:04;;;;;;;0.60;0.10;;;;;;;;;;5046689;28;20055;-90
2024/01/04 03:54:31;;;;;;;0.28;0.08;;;;;;;;;;5045886;28;20052;-90
2024/01/04 03:56:58;;;;;;;0.32;0.00;;;;;;;;;;5059844;28;20061;-89
2024/01/04 03:59:26;;;;;;;0.32;0.10;;;;;;;;;;5059994;28;20045;-92
2024/01/04 04:01:53;;;;;;;0.38;0.00;;;;;;;;;;5038185;28;20061;-90
2024/01/04 04:04:20;;;;;;;0.40;0.28;;;;;;;;;;5022451;28;20091;-89
2024/01/04 04:06:47;;;;;;;0.20;0.10;;;;;;;;;;5062486;28;20099;-88
2024/01/04 04:09:15;;;;;;;0.10;0.10;;;;;;;;;;5046471;28;20069;-89
2024/01/04 04:11:42;;;;;;;1.35;0.10;;;;;;;;;;5030238;28;20052;-90
2024/01/04 04:14:10;;;;;;;0.75;0.10;;;;;;;;;;5046159;28;20119;-90
2024/01/04 04:16:41;;;;;;;0.28;0.22;;;;;;;;;;5043852;28;20511;-89
2024/01/04 04:19:08;;;;;;;1.30;0.10;;;;;;;;;;5042537;28;20477;-90
2024/01/04 04:21:36;;;;;;;0.00;0.00;;;;;;;;;;5044447;28;20057;-89
2024/01/04 04:24:04;;;;;;;0.20;0.00;;;;;;;;;;5045643;28;20128;-90
2024/01/04 04:26:31;;;;;;;0.10;0.10;;;;;;;;;;5020414;28;20078;-89
2024/01/04 04:28:58;;;;;;;0.10;0.10;;;;;;;;;;5059111;28;20049;-89
2024/01/04 04:31:26;;;;;;;0.43;0.25;;;;;;;;;;5058824;28;20057;-89
2024/01/04 04:33:53;;;;;;;0.00;0.00;;;;;;;;;;5045927;28;20045;-88
2024/01/04 04:36:20;;;;;;;0.00;0.00;;;;;;;;;;5045710;28;20059;-90
2024/01/04 04:38:48;;;;;;;0.10;0.10;;;;;;;;;;5042397;28;20500;-89
2024/01/04 04:41:15;;;;;;;0.10;0.10;;;;;;;;;;5058806;28;20107;-89
2024/01/04 04:43:42;;;;;;;0.20;0.20;;;;;;;;;;5060567;28;20053;-89
2024/01/04 04:46:11;;;;;;;0.03;0.00;;;;;;;;;;5046006;28;20122;-90
2024/01/04 04:48:38;;;;;;;0.35;0.00;;;;;;;;;;5041752;28;20452;-89
2024/01/04 04:51:06;;;;;;;1.17;0.03;;;;;;;;;;5035741;28;20049;-90
2024/01/04 04:53:33;;;;;;;0.63;0.10;;;;;;;;;;5062134;28;20048;-91
2024/01/04 04:56:01;;;;;;;0.10;0.10;;;;;;;;;;5061029;28;20563;-89
2024/01/04 04:58:32;;;;;;;0.35;0.10;;;;;;;;;;5058373;28;20100;-89
2024/01/04 05:00:59;;;;;;;0.10;0.00;;;;;;;;;;5053586;28;20053;-88
2024/01/04 05:03:26;;;;;;;1.58;0.10;;;;;;;;;;5038391;28;20045;-90
2024/01/04 05:05:54;;;;;;;0.00;0.00;;;;;;;;;;5058191;28;20156;-89
2024/01/04 05:08:23;;;;;;;0.15;0.10;;;;;;;;;;5058252;28;20482;-89
2024/01/04 05:10:50;;;;;;;0.00;0.00;;;;;;;;;;5050098;28;20107;-89
2024/01/04 05:13:17;;;;;;;0.90;0.00;;;;;;;;;;5058046;28;20053;-90
2024/01/04 05:15:45;;;;;;;1.23;0.32;;;;;;;;;;5060364;28;20110;-89
2024/01/04 05:18:12;;;;;;;0.43;0.40;;;;;;;;;;5044838;28;20049;-90
2024/01/04 05:20:40;;;;;;;1.85;1.30;;;;;;;;;;5042574;28;20072;-90
2024/01/04 05:23:08;;;;;;;0.05;0.05;;;;;;;;;;5057554;28;20076;-89
2024/01/04 05:25:35;;;;;;;0.73;0.10;;;;;;;;;;5059444;28;20057;-90
2024/01/04 05:28:06;;;;;;;0.10;0.10;;;;;;;;;;5045344;28;20498;-89
2024/01/04 05:30:33;;;;;;;0.00;0.00;;;;;;;;;;5043595;28;20467;-88
2024/01/04 05:33:01;;;;;;;0.10;0.10;;;;;;;;;;5057768;28;20470;-89
2024/01/04 05:35:28;;;;;;;0.77;0.10;;;;;;;;;;5057955;28;20057;-89
2024/01/04 05:37:55;;;;;;;0.10;0.10;;;;;;;;;;5035829;28;20045;-89
2024/01/04 05:40:22;;;;;;;0.10;0.10;;;;;;;;;;5037203;28;20512;-88
2024/01/04 05:42:50;;;;;;;0.10;0.10;;;;;;;;;;5032823;28;20551;-88
2024/01/04 05:45:17;;;;;;;0.10;0.10;;;;;;;;;;5057239;28;20045;-88
2024/01/04 05:47:45;;;;;;;0.38;0.00;;;;;;;;;;5060522;28;20048;-89
2024/01/04 05:50:12;;;;;;;0.00;0.00;;;;;;;;;;5044343;28;20148;-88
2024/01/04 05:52:39;;;;;;;0.05;0.00;;;;;;;;;;5042096;28;20090;-89
2024/01/04 05:55:07;;;;;;;0.00;0.00;;;;;;;;;;5051572;28;20061;-89
2024/01/04 05:57:34;;;;;;;1.25;0.35;;;;;;;;;;5037805;28;20056;-88
2024/01/04 06:00:04;;;;;;;0.20;0.20;;;;;;;;;;5032506;28;20049;-90
2024/01/04 06:02:32;;;;;;;0.10;0.10;;;;;;;;;;5044067;28;20061;-89
2024/01/04 06:04:59;;;;;;;0.00;0.00;;;;;;;;;;5054024;28;20452;-89
2024/01/04 06:07:26;;;;;;;0.00;0.00;;;;;;;;;;5040723;28;20061;-89
2024/01/04 06:09:56;;;;;;;0.85;0.10;;;;;;;;;;5019632;28;20061;-90
2024/01/04 06:12:23;;;;;;;0.10;0.10;;;;;;;;;;5057433;28;20057;-89
2024/01/04 06:14:51;;;;;;;0.45;0.10;;;;;;;;;;5049080;28;20136;-88
2024/01/04 06:17:18;;;;;;;1.00;0.17;;;;;;;;;;5033548;28;20049;-89
2024/01/04 06:19:45;;;;;;;0.60;0.10;;;;;;;;;;5040077;28;20081;-88
2024/01/04 06:22:13;;;;;;;0.20;0.13;;;;;;;;;;5057136;28;20478;-89
2024/01/04 06:24:41;;;;;;;0.08;0.08;;;;;;;;;;5059171;28;20052;-89
2024/01/04 06:27:08;;;;;;;2.10;0.90;;;;;;;;;;5044497;28;20049;-89
2024/01/04 06:29:36;;;;;;;0.73;0.50;;;;;;;;;;5042845;28;20041;-90
2024/01/04 06:32:03;;;;;;;0.47;0.20;;;;;;;;;;5040913;28;20063;-89
2024/01/04 06:34:31;;;;;;;0.88;0.22;;;;;;;;;;5041018;28;20053;-89
2024/01/04 06:36:58;;;;;;;1.00;0.17;;;;;;;;;;5043481;28;20061;-89
2024/01/04 06:39:27;;;;;;;0.20;0.20;;;;;;;;;;5043974;28;20090;-90
2024/01/04 06:41:54;;;;;;;0.20;0.20;;;;;;;;;;5057408;28;20058;-89
2024/01/04 06:44:22;;;;;;;0.10;0.10;;;;;;;;;;5057405;28;20056;-90
2024/01/04 06:47:04;;;;;;;0.00;0.00;;;;;;;;;;5034670;28;20128;-90
2024/01/04 06:49:31;;;;;;;0.10;0.10;;;;;;;;;;5039994;28;20131;-89
2024/01/04 06:51:58;;;;;;;0.90;0.20;;;;;;;;;;5056849;28;20056;-90
2024/01/04 06:54:27;;;;;;;2.10;0.38;;;;;;;;;;5041066;28;20049;-89
2024/01/04 06:56:54;;;;;;;0.20;0.10;;;;;;;;;;5035004;28;20049;-89
2024/01/04 06:59:21;;;;;;;0.20;0.20;;;;;;;;;;5060895;28;20083;-89
2024/01/04 07:01:48;;;;;;;0.05;0.05;;;;;;;;;;5063671;28;20555;-90
2024/01/04 07:04:16;;;;;;;0.30;0.30;;;;;;;;;;5047154;28;20045;-88
2024/01/04 07:06:43;;;;;;;0.10;0.10;;;;;;;;;;5044760;28;20083;-90
2024/01/04 07:09:10;;;;;;;3.22;0.13;;;;;;;;;;5060658;28;20461;-88
2024/01/04 07:11:37;;;;;;;4.05;2.20;;;;;;;;;;5060271;28;20335;-89
2024/01/04 07:14:05;;;;;;;7.13;4.05;;;;;;;;;;5043817;28;20053;-88
2024/01/04 07:16:32;;;;;;;9.23;6.70;;;;;;;;;;5043652;28;20041;-88
2024/01/04 07:18:59;;;;;;;6.38;4.22;;;;;;;;;;5060969;28;20422;-88
2024/01/04 07:21:27;;;;;;;15.35;9.05;;;;;;;;;;5048125;28;20050;-88
2024/01/04 07:23:54;;;;;;;13.30;9.48;;;;;;;;;;5043407;28;20061;-87
2024/01/04 07:26:21;;;;;;;3.05;1.58;;;;;;;;;;5060456;28;20054;-89
2024/01/04 07:28:48;;;;;;;0.10;0.10;;;;;;;;;;5063099;28;20452;-87
2024/01/04 07:31:16;;;;;;;0.13;0.10;;;;;;;;;;5046681;28;20068;-86
2024/01/04 07:33:43;;;;;;;0.60;0.10;;;;;;;;;;5044105;28;20063;-89
2024/01/04 07:36:10;;;;;;;0.13;0.13;;;;;;;;;;5060328;28;20508;-88
2024/01/04 07:38:38;;;;;;;0.00;0.00;;;;;;;;;;5061953;28;20076;-88
2024/01/04 07:41:05;;;;;;;0.00;0.00;;;;;;;;;;5046691;28;20049;-88
2024/01/04 07:43:33;;;;;;;0.77;0.10;;;;;;;;;;5044377;28;20048;-89
2024/01/04 07:46:00;;;;;;;0.17;0.13;;;;;;;;;;5033493;28;20057;-90
2024/01/04 07:48:29;;;;;;;1.98;0.32;;;;;;;;;;5046497;28;20413;-89
2024/01/04 07:50:56;;;;;;;0.65;0.10;;;;;;;;;;5056030;28;20063;-89
2024/01/04 07:53:23;;;;;;;0.35;0.20;;;;;;;;;;5047062;28;20049;-89
2024/01/04 07:55:51;;;;;;;0.28;0.20;;;;;;;;;;5051755;28;20057;-89
2024/01/04 07:58:18;;;;;;;0.20;0.20;;;;;;;;;;5042994;28;20049;-90
2024/01/04 08:00:45;;;;;;;0.30;0.30;;;;;;;;;;5034712;28;20049;-89
2024/01/04 08:03:12;;;;;;;0.40;0.35;;;;;;;;;;5059886;28;20045;-88
2024/01/04 08:05:40;;;;;;;0.73;0.65;;;;;;;;;;5061566;28;20493;-89
2024/01/04 08:08:07;;;;;;;0.20;0.20;;;;;;;;;;5046601;28;20123;-90
2024/01/04 08:10:35;;;;;;;0.32;0.32;;;;;;;;;;5027563;28;20111;-90
2024/01/04 08:13:02;;;;;;;0.20;0.20;;;;;;;;;;5035389;28;20053;-89
2024/01/04 08:15:33;;;;;;;0.30;0.25;;;;;;;;;;5030163;28;20115;-88
2024/01/04 08:18:03;;;;;;;0.22;0.22;;;;;;;;;;5046847;28;20065;-89
2024/01/04 08:20:33;;;;;;;;;;;;;;;;;;5045705;28;20095;-89
2024/01/04 08:23:01;;;;;;;0.20;0.20;;;;;;;;;;5042980;28;20377;-89
2024/01/04 08:25:28;;;;;;;0.30;0.30;;;;;;;;;;5059899;28;20107;-90
2024/01/04 08:27:56;;;;;;;0.28;0.28;;;;;;;;;;5046608;28;20056;-89
2024/01/04 08:30:23;;;;;;;0.40;0.40;;;;;;;;;;5046562;28;20065;-88
2024/01/04 08:32:50;;;;;;;1.55;0.52;;;;;;;;;;5034397;28;20213;-89
2024/01/04 08:35:18;;;;;;;1.15;0.38;;;;;;;;;;5043632;28;20498;-89
2024/01/04 08:37:46;;;;;;;0.40;0.40;;;;;;;;;;5057048;28;20076;-89
2024/01/04 08:40:14;;;;;;;1.02;0.50;;;;;;;;;;5060795;28;20486;-89
2024/01/04 08:42:41;;;;;;;1.63;0.32;;;;;;;;;;5044844;28;20053;-89
2024/01/04 08:45:11;;;;;;;1.85;0.60;;;;;;;;;;5045902;28;20099;-88
2024/01/04 08:47:39;;;;;;;0.40;0.40;;;;;;;;;;5043872;28;20516;-89
2024/01/04 08:50:07;;;;;;;0.52;0.52;;;;;;;;;;5058870;28;20049;-89
2024/01/04 08:52:35;;;;;;;2.00;0.60;;;;;;;;;;5060098;28;20088;-87
2024/01/04 08:55:02;;;;;;;0.43;0.43;;;;;;;;;;5045911;28;20045;-89
2024/01/04 08:57:32;;;;;;;1.25;0.60;;;;;;;;;;5044866;28;20559;-89
2024/01/04 08:59:59;;;;;;;0.50;0.50;;;;;;;;;;5058923;28;20079;-90
2024/01/04 09:02:27;;;;;;;1.00;0.50;;;;;;;;;;5058350;28;20137;-89
2024/01/04 09:04:54;;;;;;;0.50;0.50;;;;;;;;;;5030319;28;20049;-91
2024/01/04 09:07:22;;;;;;;1.38;0.90;;;;;;;;;;5045839;28;20537;-90
2024/01/04 09:09:52;;;;;;;3.03;1.40;;;;;;;;;;5034562;28;20049;-91
2024/01/04 09:12:20;;;;;;;3.28;1.40;;;;;;;;;;5058620;28;20054;-91
2024/01/04 09:14:47;;;;;;;0.73;0.70;;;;;;;;;;5058819;28;20053;-91
2024/01/04 09:17:15;;;;;;;1.45;0.68;;;;;;;;;;5042353;28;20049;-90
2024/01/04 09:19:42;;;;;;;1.58;0.30;;;;;;;;;;5043199;28;20058;-89
2024/01/04 09:22:09;;;;;;;0.60;0.50;;;;;;;;;;5045517;28;20553;-90
2024/01/04 09:24:37;;;;;;;0.63;0.50;;;;;;;;;;5043933;28;20091;-89
2024/01/04 09:27:04;;;;;;;4.60;3.75;;;;;;;;;;5058674;28;20144;-90
2024/01/04 09:29:31;;;;;;;1.08;0.95;;;;;;;;;;5058644;28;20060;-90
2024/01/04 09:32:00;;;;;;;0.98;0.88;;;;;;;;;;5042194;28;20072;-91
2024/01/04 09:34:28;;;;;;;0.68;0.68;;;;;;;;;;5042216;28;20050;-90
2024/01/04 09:36:55;;;;;;;2.22;0.68;;;;;;;;;;5045213;28;20057;-90
2024/01/04 09:39:22;;;;;;;4.13;0.80;;;;;;;;;;5045258;28;20102;-91
2024/01/04 09:41:51;;;;;;;2.08;0.75;;;;;;;;;;5033570;28;20077;-91
2024/01/04 09:44:18;;;;;;;1.52;0.85;;;;;;;;;;5058329;28;20052;-91
2024/01/04 09:46:46;;;;;;;0.50;0.50;;;;;;;;;;5061058;28;20111;-91
2024/01/04 09:49:13;;;;;;;0.82;0.60;;;;;;;;;;5045578;28;20045;-91
2024/01/04 09:51:42;;;;;;;2.30;0.50;;;;;;;;;;5053884;28;20047;-91
2024/01/04 09:54:10;;;;;;;0.32;0.32;;;;;;;;;;5067712;28;20139;-91
2024/01/04 09:56:46;;;;;;;0.50;0.50;;;;;;;;;;5040859;28;20124;-91
2024/01/04 09:59:14;;;;;;;2.28;0.30;;;;;;;;;;5057537;28;20045;-91
2024/01/04 10:01:41;;;;;;;0.85;0.38;;;;;;;;;;5059631;28;20049;-92
2024/01/04 10:04:12;;;;;;;0.60;0.38;;;;;;;;;;5032296;28;20045;-91
2024/01/04 10:06:41;;;;;;;0.30;0.30;;;;;;;;;;5042083;28;20056;-91
2024/01/04 10:09:18;;;;;;;0.40;0.40;;;;;;;;;;5044503;28;20055;-91
2024/01/04 10:11:58;;;;;;;0.30;0.30;;;;;;;;;;5041739;28;20059;-90
2024/01/04 10:14:26;;;;;;;2.28;0.30;;;;;;;;;;5032588;28;20052;-91
2024/01/04 10:16:56;;;;;;;0.55;0.55;;;;;;;;;;5057189;28;20080;-91
2024/01/04 10:19:24;;;;;;;0.38;0.38;;;;;;;;;;5057133;28;20084;-90
2024/01/04 10:21:51;;;;;;;0.45;0.30;;;;;;;;;;5045422;28;20054;-90
2024/01/04 10:24:22;;;;;;;0.20;0.20;;;;;;;;;;5035504;28;20049;-90
2024/01/04 10:27:00;;;;;;;0.20;0.20;;;;;;;;;;5032540;28;20100;-92
2024/01/04 10:29:28;;;;;;;0.52;0.20;;;;;;;;;;5058118;28;20053;-90
2024/01/04 10:32:05;;;;;;;0.90;0.20;;;;;;;;;;5048291;28;20123;-89
2024/01/04 10:34:34;;;;;;;0.25;0.25;;;;;;;;;;5046603;28;20048;-90
2024/01/04 10:37:08;;;;;;;0.22;0.10;;;;;;;;;;5061466;28;20140;-89
2024/01/04 10:39:36;;;;;;;0.70;0.70;;;;;;;;;;5062601;28;20054;-90
2024/01/04 10:42:05;;;;;;;0.47;0.47;;;;;;;;;;5047731;28;20110;-90
2024/01/04 10:44:33;;;;;;;0.20;0.17;;;;;;;;;;5046828;28;20075;-91
2024/01/04 10:47:04;;;;;;;0.20;0.20;;;;;;;;;;5061200;28;20057;-90
2024/01/04 10:49:31;;;;;;;0.43;0.30;;;;;;;;;;5061886;28;20103;-90
2024/01/04 10:52:01;;;;;;;0.52;0.20;;;;;;;;;;5048098;28;20106;-89
2024/01/04 10:54:32;;;;;;;1.08;0.30;;;;;;;;;;5047505;28;20075;-89
2024/01/04 10:57:00;;;;;;;0.80;0.30;;;;;;;;;;5061163;28;20502;-90
2024/01/04 10:59:28;;;;;;;0.22;0.22;;;;;;;;;;5060639;28;20050;-89
2024/01/04 11:01:57;;;;;;;0.10;0.10;;;;;;;;;;5044151;28;20053;-88
2024/01/04 11:04:29;;;;;;;0.65;0.20;;;;;;;;;;5044071;28;20049;-89
2024/01/04 11:06:58;;;;;;;0.28;0.28;;;;;;;;;;5058770;28;20065;-88
2024/01/04 11:09:25;;;;;;;0.30;0.20;;;;;;;;;;5048183;28;20099;-89
2024/01/04 11:11:54;;;;;;;0.20;0.10;;;;;;;;;;5047825;28;20072;-88
2024/01/04 11:14:22;;;;;;;0.10;0.10;;;;;;;;;;5047399;28;20052;-87
2024/01/04 11:16:57;;;;;;;0.50;0.10;;;;;;;;;;5043989;28;20061;-87
2024/01/04 11:19:33;;;;;;;0.47;0.22;;;;;;;;;;5059863;28;20119;-88
2024/01/04 11:22:10;;;;;;;0.38;0.25;;;;;;;;;;5037156;28;20143;-88
2024/01/04 11:24:40;;;;;;;1.00;0.10;;;;;;;;;;5044196;28;20374;-88
2024/01/04 11:27:13;;;;;;;1.10;0.20;;;;;;;;;;5060375;28;20049;-87
2024/01/04 11:29:42;;;;;;;0.82;0.30;;;;;;;;;;5060203;28;20063;-88
2024/01/04 11:32:10;;;;;;;0.40;0.40;;;;;;;;;;5043908;28;20064;-88
2024/01/04 11:34:41;;;;;;;1.58;0.40;;;;;;;;;;5045154;28;20068;-88
2024/01/04 11:37:09;;;;;;;0.10;0.10;;;;;;;;;;5046951;28;20063;-89
2024/01/04 11:39:55;;;;;;;0.63;0.10;;;;;;;;;;5045211;28;20056;-89
2024/01/04 11:42:36;;;;;;;0.13;0.13;;;;;;;;;;5058771;28;20057;-86
2024/01/04 11:45:04;;;;;;;0.10;0.10;;;;;;;;;;5036965;28;20068;-89
2024/01/04 11:47:38;;;;;;;0.10;0.10;;;;;;;;;;5060721;28;20462;-87
2024/01/04 11:50:13;;;;;;;0.10;0.10;;;;;;;;;;5035202;28;20487;-89
2024/01/04 11:52:46;;;;;;;0.10;0.10;;;;;;;;;;5046475;28;20055;-89
2024/01/04 11:55:26;;;;;;;0.22;0.10;;;;;;;;;;5046627;28;20048;-89
2024/01/04 11:58:12;;;;;;;0.10;0.10;;;;;;;;;;5035451;28;20053;-89
2024/01/04 12:00:50;;;;;;;0.17;0.10;;;;;;;;;;5059453;28;20049;-89
2024/01/04 12:03:20;;;;;;;0.10;0.10;;;;;;;;;;5059483;28;20049;-89
2024/01/04 12:05:50;;;;;;;0.22;0.22;;;;;;;;;;5062392;28;20067;-88
2024/01/04 12:08:31;;;;;;;1.33;0.40;;;;;;;;;;5046223;28;20053;-89
2024/01/04 12:11:00;;;;;;;0.30;0.30;;;;;;;;;;5035809;28;20119;-89
2024/01/04 12:13:28;;;;;;;0.10;0.10;;;;;;;;;;5059668;28;20056;-89
2024/01/04 12:15:55;;;;;;;0.25;0.13;;;;;;;;;;5042373;28;20084;-88
2024/01/04 12:18:22;;;;;;;0.25;0.20;;;;;;;;;;5066721;28;20140;-89
2024/01/04 12:20:55;;;;;;;0.47;0.10;;;;;;;;;;5041900;28;20041;-87
2024/01/04 12:23:38;;;;;;;0.10;0.10;;;;;;;;;;5067202;28;20071;-88
2024/01/04 12:26:06;;;;;;;0.10;0.10;;;;;;;;;;5040394;28;20461;-87
2024/01/04 12:28:34;;;;;;;1.35;0.10;;;;;;;;;;5060483;28;20049;-89
2024/01/04 12:31:02;;;;;;;0.20;0.13;;;;;;;;;;5046156;28;20045;-89
2024/01/04 12:33:30;;;;;;;0.10;0.10;;;;;;;;;;5044819;28;20055;-89
2024/01/04 12:35:59;;;;;;;0.10;0.10;;;;;;;;;;5058854;28;20054;-88
2024/01/04 12:38:28;;;;;;;0.30;0.20;;;;;;;;;;5041926;28;20469;-88
2024/01/04 12:40:55;;;;;;;0.30;0.30;;;;;;;;;;5058813;28;20054;-89
2024/01/04 12:43:24;;;;;;;0.20;0.20;;;;;;;;;;5041199;28;20068;-88
2024/01/04 12:46:05;;;;;;;0.10;0.10;;;;;;;;;;5034446;28;20493;-87
2024/01/04 12:48:33;;;;;;;0.00;0.00;;;;;;;;;;5059630;28;20493;-87
2024/01/04 12:51:08;;;;;;;0.10;0.08;;;;;;;;;;5045522;28;20409;-88
2024/01/04 12:53:36;;;;;;;0.10;0.10;;;;;;;;;;5043445;28;20049;-87
2024/01/04 12:56:03;;;;;;;0.20;0.10;;;;;;;;;;5058515;28;20083;-87
2024/01/04 12:58:30;;;;;;;0.03;0.03;;;;;;;;;;5059056;28;20455;-89
2024/01/04 13:00:57;;;;;;;0.30;0.00;;;;;;;;;;5045542;28;20099;-88
2024/01/04 13:03:26;;;;;;;1.23;0.10;;;;;;;;;;5044821;28;20516;-87
2024/01/04 13:05:53;;;;;;;0.10;0.10;;;;;;;;;;5034095;28;20055;-88
2024/01/04 13:08:21;;;;;;;0.30;0.08;;;;;;;;;;5041769;28;20441;-87
2024/01/04 13:10:48;;;;;;;0.00;0.00;;;;;;;;;;5061239;28;20508;-87
2024/01/04 13:13:15;;;;;;;0.10;0.00;;;;;;;;;;5038113;28;20049;-86
2024/01/04 13:15:43;;;;;;;0.10;0.10;;;;;;;;;;5043552;28;20057;-88
2024/01/04 13:18:10;;;;;;;0.10;0.10;;;;;;;;;;5044717;28;20049;-88
2024/01/04 13:20:38;;;;;;;0.10;0.10;;;;;;;;;;5042847;28;20128;-88
2024/01/04 13:23:10;;;;;;;0.30;0.10;;;;;;;;;;5056973;28;20140;-88
2024/01/04 13:25:38;;;;;;;0.20;0.08;;;;;;;;;;5055716;28;20508;-87
2024/01/04 13:28:05;;;;;;;0.30;0.10;;;;;;;;;;5032672;28;20053;-88
2024/01/04 13:30:32;;;;;;;0.30;0.10;;;;;;;;;;5043446;28;20053;-88
2024/01/04 13:33:00;;;;;;;0.40;0.10;;;;;;;;;;5053221;28;20085;-87
2024/01/04 13:35:27;;;;;;;0.10;0.10;;;;;;;;;;5040367;28;20052;-89
2024/01/04 13:37:54;;;;;;;1.20;1.13;;;;;;;;;;5072603;28;20402;-88
2024/01/04 13:40:23;;;;;;;1.73;1.52;;;;;;;;;;5058142;28;20088;-89
2024/01/04 13:42:50;;;;;;;0.32;0.32;;;;;;;;;;5049195;28;20057;-87
2024/01/04 13:45:18;;;;;;;0.55;0.55;;;;;;;;;;5057350;28;20053;-88
2024/01/04 13:47:46;;;;;;;0.55;0.20;;;;;;;;;;5060543;28;20064;-88
2024/01/04 13:50:14;;;;;;;0.20;0.20;;;;;;;;;;5044280;28;20088;-89
2024/01/04 13:52:42;;;;;;;1.17;0.38;;;;;;;;;;5042047;28;20064;-89
2024/01/04 13:55:10;;;;;;;0.40;0.40;;;;;;;;;;5057465;28;20053;-88
2024/01/04 13:57:37;;;;;;;0.30;0.30;;;;;;;;;;5040839;28;20107;-89
2024/01/04 14:00:08;;;;;;;0.35;0.35;;;;;;;;;;5057409;28;20045;-88
2024/01/04 14:02:35;;;;;;;0.82;0.80;;;;;;;;;;5058666;28;20049;-89
2024/01/04 14:05:03;;;;;;;1.45;1.35;;;;;;;;;;5030217;28;20045;-89
2024/01/04 14:07:32;;;;;;;3.95;3.30;;;;;;;;;;5057981;28;20087;-89
2024/01/04 14:09:59;;;;;;;5.15;3.50;;;;;;;;;;5034778;28;20399;-88
2024/01/04 14:12:26;;;;;;;4.32;3.55;;;;;;;;;;5037348;28;20071;-88
2024/01/04 14:14:53;;;;;;;5.03;3.75;;;;;;;;;;5057102;28;20391;-88
2024/01/04 14:17:21;;;;;;;1.23;1.23;;;;;;;;;;5057183;28;20111;-89
2024/01/04 14:19:49;;;;;;;2.20;2.00;;;;;;;;;;5056335;28;20095;-89
2024/01/04 14:22:16;;;;;;;3.85;1.80;;;;;;;;;;5040785;28;20049;-89
2024/01/04 14:24:43;;;;;;;2.08;1.92;;;;;;;;;;5041600;28;20048;-89
2024/01/04 14:27:11;;;;;;;1.98;1.88;;;;;;;;;;5057022;28;20502;-91
2024/01/04 14:29:38;;;;;;;3.42;1.20;;;;;;;;;;5059051;28;20163;-89
2024/01/04 14:32:06;;;;;;;1.60;1.50;;;;;;;;;;5044125;28;20103;-89
2024/01/04 14:34:33;;;;;;;1.10;1.00;;;;;;;;;;5042832;28;20107;-90
2024/01/04 14:37:00;;;;;;;3.03;0.70;;;;;;;;;;5057335;28;20457;-89
2024/01/04 14:39:28;;;;;;;0.90;0.90;;;;;;;;;;5057437;28;20065;-88
2024/01/04 14:41:55;;;;;;;0.93;0.93;;;;;;;;;;5044311;28;20497;-89
2024/01/04 14:44:22;;;;;;;1.05;0.68;;;;;;;;;;5043812;28;20056;-87
2024/01/04 14:46:51;;;;;;;1.35;0.65;;;;;;;;;;5040549;28;20441;-90
2024/01/04 14:49:18;;;;;;;1.05;0.45;;;;;;;;;;5057331;28;20107;-90